MMCL/CUL METAR and TAF weather

Enter ICAO airport designator
Station Type Date Time Source
MMCL METAR 2021/09/16 21:16 UTC NOAA

MMCL 162116Z RTD 20008KT 10SM BKN020 33/25 A2976 RMK SLP074 57022 900 8/100


Station Type Date Time Source
MMCL Decoded METAR 2021/09/16 21:16 UTC NOAA

Culiacan, Sin., Mexico (MMCL) 24-49N 107-24W
Sep 16, 2021 - 05:16 PM EDT / 2021.09.16 2116 UTC
Wind: from the SSW (200 degrees) at 9 MPH (8 KT):0
Visibility: 10 mile(s):0
Sky conditions: mostly cloudy
Temperature: 91 F (33 C)
Heat index: 103.5 F (39.7 C):1
Dew Point: 77 F (25 C)
Relative Humidity: 62%
Pressure (altimeter): 29.76 in. Hg (1007 hPa)
Pressure tendency: 0.06 inches (2.2 hPa) lower than three hours ago
ob: MMCL 162116Z RTD 20008KT 10SM BKN020 33/25 A2976 RMK SLP074 57022 900 8/100
cycle: 21

Station Type Date Time Source
MMCL TAF 2021/09/16 18:59 UTC NOAA

TAF MMCL 161651Z 1618/1718 26008KT P6SM SCT020 SCT100
FM170300 24005KT P6SM SCT020 BKN200 PROB40 1704/1708 3SM TSRA BKN015CB
FM170800 00000KT P6SM SCT020 BKN100
FM171600 23010KT P6SM SCT020 SCT100

Example: see airport list